Latest Weather Observations for Nuriootpa

IDS60901

Issued at 5:51 pm CST Thursday 29 September 2016 (issued every 10 minutes, with the page automatically refreshed every 10 minutes)

About weather observations | Map of Adelaide area stations | Latest observations for Adelaide area | Other Formats
Station Details ID: 023373 Name: NURIOOTPA PIRSA Lat: -34.48 Lon: 139.01 Height: 275.0 m
Data from the previous 72 hours. | See also: Recent months at Nuriootpa
Date/Time
CST
Temp
°C
App
Temp
°C
Dew
Point
°C
Rel
Hum
%
Delta-T
°C
Wind Press
QNH
hPa
Press
MSL
hPa
Rain since
9am
mm
Dir  Spd
km/h
Gust
km/h
Spd
kts
Gust
kts
29/05:30pm 9.5 0.2 9.1 97 0.2 W 48 69 26 37 990.1 989.9 18.4
29/05:00pm 9.7 0.4 9.3 97 0.2 WNW 48 83 26 45 989.0 988.8 17.6
29/04:30pm 9.8 1.0 9.4 97 0.2 W 46 72 25 39 988.3 988.1 15.4
29/04:00pm 10.3 1.1 9.5 95 0.4 W 48 74 26 40 987.1 986.9 13.2
29/03:30pm 10.1 1.3 9.5 96 0.3 WNW 46 78 25 42 986.3 986.1 12.4
29/03:00pm 10.1 1.6 9.3 95 0.4 WNW 44 65 24 35 986.6 986.4 10.2
29/02:30pm 9.9 1.4 9.1 95 0.4 WNW 44 72 24 39 986.5 986.3 9.2
29/02:00pm 10.0 2.9 9.4 96 0.3 W 37 61 20 33 986.4 986.2 7.2
29/01:39pm 9.9 3.1 9.1 95 0.4 WNW 35 59 19 32 986.1 985.9 3.4
29/01:30pm 10.4 3.6 9.4 93 0.5 WNW 35 52 19 28 986.2 986.0 2.4
29/01:00pm 11.4 3.6 8.4 82 1.5 WNW 39 61 21 33 986.4 986.2 2.4
29/12:31pm 11.3 1.9 7.0 75 2.1 WNW 46 65 25 35 986.6 986.4 2.0
29/12:30pm 11.4 1.6 6.9 74 2.2 WNW 48 65 26 35 986.6 986.4 2.0
29/12:00pm 12.5 3.8 7.5 71 2.5 WNW 43 67 23 36 986.3 986.1 2.0
29/11:30am 11.5 3.6 7.9 78 1.8 WNW 39 63 21 34 986.1 985.9 2.0
29/11:00am 11.1 2.1 7.2 77 1.9 WNW 44 63 24 34 985.5 985.3 1.8
29/10:30am 9.7 0.8 7.7 87 1.0 WNW 44 67 24 36 984.8 984.5 1.8
29/10:00am 8.7 -0.6 7.7 93 0.5 WNW 46 67 25 36 984.3 984.0 1.6
29/09:30am 8.4 -1.0 7.2 92 0.6 WNW 46 76 25 41 983.3 983.1 0.8
29/09:00am 9.9 0.2 7.5 85 1.2 WNW 48 67 26 36 982.2 982.0 23.2
29/08:30am 8.4 -0.5 7.6 95 0.4 NW 44 65 24 35 981.4 981.1 23.2
29/08:00am 8.0 -1.8 7.0 93 0.5 NW 48 72 26 39 980.9 980.6 22.8
29/07:30am 7.2 -0.7 6.1 93 0.5 NNW 37 59 20 32 980.9 980.6 21.6
29/07:00am 6.5 -2.7 5.4 93 0.5 N 43 72 23 39 981.4 981.1 20.0
29/06:30am 6.3 -3.1 4.5 88 0.8 N 43 69 23 37 982.4 982.2 19.0
29/06:00am 6.0 -1.9 4.4 89 0.7 N 35 59 19 32 983.2 983.0 18.6
29/05:30am 6.0 -1.5 4.7 91 0.6 N 33 57 18 31 983.7 983.5 17.6
29/05:00am 6.0 -0.9 4.7 91 0.6 N 30 52 16 28 985.0 984.7 17.0
29/04:30am 6.1 -2.6 4.1 87 0.9 N 39 67 21 36 985.9 985.7 17.0
29/04:00am 6.1 -1.8 4.3 88 0.8 NNW 35 59 19 32 986.5 986.3 17.0
29/03:30am 6.3 -2.0 4.3 87 0.9 NNW 37 56 20 30 986.9 986.7 16.4
29/03:00am 6.8 -0.2 4.1 83 1.2 N 30 50 16 27 987.5 987.3 16.2
29/02:30am 6.8 -0.2 4.1 83 1.2 N 30 50 16 27 988.8 988.6 16.2
29/02:07am 6.8 0.2 4.1 83 1.2 N 28 46 15 25 989.5 989.3 16.2
29/02:00am 6.8 0.6 4.1 83 1.2 N 26 41 14 22 989.6 989.4 16.2
29/01:30am 6.9 1.1 4.2 83 1.2 NNW 24 41 13 22 990.6 990.4 16.2
29/01:02am 7.0 -0.1 3.6 79 1.5 NNW 30 48 16 26 991.3 991.2 16.2
29/01:00am 6.9 0.3 4.0 82 1.3 NNW 28 43 15 23 991.5 991.3 16.2
29/12:34am 7.0 -0.1 3.6 79 1.5 NNW 30 50 16 27 991.9 991.7 16.2
29/12:30am 6.8 -0.7 3.6 80 1.4 NNW 32 44 17 24 991.9 991.7 16.2
29/12:00am 7.0 0.4 4.3 83 1.2 NNW 28 46 15 25 992.5 992.3 16.2
 
Date/Time
CST
Temp
°C
App
Temp
°C
Dew
Point
°C
Rel
Hum
%
Delta-T
°C
Wind Press
QNH
hPa
Press
MSL
hPa
Rain since
9am
mm
Dir  Spd
km/h
Gust
km/h
Spd
kts
Gust
kts
28/11:30pm 7.5 0.5 4.1 79 1.5 NNW 30 48 16 26 993.2 993.0 16.2
28/11:05pm 7.5 1.0 4.6 82 1.3 NNW 28 46 15 25 993.2 993.0 16.2
28/11:00pm 7.5 1.8 4.8 83 1.2 NNW 24 32 13 17 993.3 993.1 16.2
28/10:30pm 7.7 2.1 5.3 85 1.1 NNW 24 35 13 19 993.6 993.4 16.2
28/10:00pm 7.7 0.9 5.3 85 1.1 NNW 30 43 16 23 993.6 993.4 16.2
28/09:30pm 7.6 1.9 5.0 83 1.2 NW 24 39 13 21 993.4 993.2 16.2
28/09:00pm 7.9 0.6 5.3 84 1.2 NW 33 44 18 24 992.5 992.3 16.2
28/08:30pm 8.6 0.9 7.1 90 0.7 NW 37 56 20 30 992.3 992.1 15.8
28/08:00pm 8.9 0.8 7.0 88 0.9 NW 39 57 21 31 991.9 991.7 15.8
28/07:33pm 9.2 2.0 7.8 91 0.7 NW 35 54 19 29 993.0 992.8 15.8
28/07:30pm 9.2 1.3 8.0 92 0.6 NW 39 54 21 29 993.1 992.9 15.8
28/07:04pm 10.0 2.0 9.0 93 0.5 NW 41 61 22 33 992.5 992.3 15.0
28/07:00pm 10.1 1.7 9.1 93 0.5 WNW 43 57 23 31 992.3 992.1 15.0
28/06:30pm 10.8 3.1 10.0 95 0.4 WNW 41 59 22 32 991.9 991.7 14.2
28/06:00pm 11.9 5.4 10.4 90 0.8 WNW 35 59 19 32 991.7 991.5 13.4
28/05:43pm 12.6 5.0 10.5 87 1.1 NW 41 59 22 32 991.7 991.5 13.0
28/05:30pm 12.9 5.3 10.5 85 1.3 NW 41 57 22 31 991.2 991.1 12.8
28/05:07pm 14.3 6.9 12.5 89 1.0 N 43 63 23 34 989.5 989.3 12.8
28/05:06pm 14.4 7.0 12.6 89 1.0 N 43 63 23 34 989.7 989.5 12.8
28/05:00pm 15.0 8.4 12.5 85 1.4 N 39 61 21 33 989.1 988.9 12.8
28/04:57pm 15.1 8.8 12.4 84 1.5 NNE 37 57 20 31 988.4 988.2 12.8
28/04:30pm 14.7 9.2 12.4 86 1.3 NE 33 65 18 35 988.1 987.8 10.0
28/04:25pm 14.6 10.0 12.3 86 1.3 NE 28 65 15 35 987.4 987.2 9.8
28/04:00pm 13.2 10.4 11.4 89 1.0 ENE 17 26 9 14 990.0 989.8 9.0
28/03:30pm 12.9 9.1 11.0 88 1.0 ENE 22 35 12 19 989.9 989.7 9.0
28/03:00pm 13.4 8.7 10.8 84 1.4 ENE 26 37 14 20 992.0 991.8 9.0
28/02:30pm 13.6 8.3 11.2 85 1.3 ENE 30 43 16 23 993.0 992.8 9.0
28/02:03pm 12.4 7.3 10.5 88 1.0 ENE 28 46 15 25 994.4 994.3 9.0
28/02:00pm 12.2 7.1 10.5 89 0.9 ENE 28 41 15 22 994.6 994.5 9.0
28/01:30pm 11.7 7.2 10.2 90 0.8 ENE 24 35 13 19 996.6 996.4 8.6
28/01:00pm 11.1 6.4 9.1 87 1.0 ENE 24 37 13 20 998.1 998.0 8.2
28/12:30pm 10.7 6.2 8.7 87 1.0 ENE 22 35 12 19 999.8 999.6 7.4
28/12:00pm 10.5 8.4 8.3 86 1.1 NE 9 17 5 9 1001.3 1001.2 4.2
28/11:30am 11.4 6.0 6.4 71 2.4 NE 24 33 13 18 1001.1 1001.0 1.6
28/11:00am 13.5 7.7 4.6 55 4.2 NE 24 37 13 20 1000.9 1000.8 0.0
28/10:30am 14.3 8.3 5.1 54 4.4 NE 26 37 14 20 1002.0 1001.9 0.0
28/10:00am 14.5 8.0 4.8 52 4.6 NE 28 43 15 23 1003.4 1003.2 0.0
28/09:30am 15.6 9.5 4.7 48 5.2 NE 26 39 14 21 1004.3 1004.2 0.0
28/09:00am 14.3 8.2 4.8 53 4.5 NE 26 39 14 21 1005.2 1005.1 0.0
28/08:30am 13.6 8.0 5.2 57 4.0 NE 24 35 13 19 1005.8 1005.7 0.0
28/08:00am 12.3 7.0 4.8 60 3.5 NE 22 32 12 17 1006.7 1006.6 0.0
28/07:30am 11.5 6.4 4.3 61 3.3 NE 20 30 11 16 1007.0 1006.9 0.0
28/07:00am 10.0 5.5 4.2 67 2.6 ENE 17 20 9 11 1007.3 1007.2 0.0
28/06:30am 8.6 5.6 4.1 73 2.0 ENE 9 13 5 7 1008.0 1007.9 0.0
28/06:00am 8.0 4.3 4.4 78 1.6 NE 13 19 7 10 1008.4 1008.3 0.0
28/05:30am 8.4 4.0 4.6 77 1.7 NE 17 24 9 13 1008.6 1008.5 0.0
28/05:00am 6.7 3.8 4.7 87 0.9 ENE 9 13 5 7 1008.9 1008.8 0.0
28/04:30am 7.7 4.5 5.3 85 1.1 ENE 11 17 6 9 1009.2 1009.1 0.0
28/04:00am 7.7 4.2 5.3 85 1.1 ENE 13 17 7 9 1009.5 1009.4 0.0
28/03:30am 7.0 3.8 5.0 87 0.9 ENE 11 15 6 8 1009.7 1009.7 0.0
28/03:00am 4.9 1.3 3.2 89 0.7 ENE 11 15 6 8 1010.2 1010.2 0.0
28/02:30am 4.6 1.5 3.4 92 0.5 ENE 9 13 5 7 1010.7 1010.6 0.0
28/02:00am 3.9 0.7 3.2 95 0.3 ENE 9 11 5 6 1011.2 1011.1 0.0
28/01:30am 3.8 0.9 2.8 93 0.4 ENE 7 9 4 5 1011.8 1011.7 0.0
28/01:00am 4.2 1.5 3.5 95 0.3 NE 7 9 4 5 1012.2 1012.1 0.0
28/12:30am 4.8 1.8 3.9 94 0.4 NE 9 9 5 5 1012.5 1012.4 0.0
28/12:00am 5.3 2.0 4.4 94 0.4 NE 11 13 6 7 1012.7 1012.6 0.0
 
Date/Time
CST
Temp
°C
App
Temp
°C
Dew
Point
°C
Rel
Hum
%
Delta-T
°C
Wind Press
QNH
hPa
Press
MSL
hPa
Rain since
9am
mm
Dir  Spd
km/h
Gust
km/h
Spd
kts
Gust
kts
27/11:30pm 5.1 2.2 4.4 95 0.3 NE 9 13 5 7 1012.9 1012.9 0.0
27/11:00pm 5.2 2.8 4.5 95 0.3 NE 6 7 3 4 1013.0 1013.0 0.0
27/10:30pm 5.5 2.6 4.8 95 0.3 NE 9 11 5 6 1013.3 1013.3 0.0
27/10:00pm 6.0 4.9 5.3 95 0.3 CALM 0 0 0 0 1013.4 1013.4 0.0
27/09:30pm 5.8 3.9 5.1 95 0.3 NE 4 7 2 4 1013.6 1013.6 0.0
27/09:00pm 7.2 4.6 6.1 93 0.5 ENE 9 11 5 6 1013.9 1013.9 0.0
27/08:30pm 7.1 5.0 5.8 91 0.6 ENE 6 9 3 5 1014.0 1014.0 0.0
27/08:00pm 7.8 6.9 6.1 89 0.8 CALM 0 0 0 0 1014.3 1014.2 0.0
27/07:30pm 9.0 8.3 6.9 87 1.0 CALM 0 0 0 0 1014.5 1014.4 0.0
27/07:00pm 10.0 8.0 7.1 82 1.4 WNW 7 9 4 5 1014.0 1014.0 0.0
27/06:30pm 11.5 9.4 6.7 72 2.3 NW 7 9 4 5 1014.3 1014.2 0.0
27/06:00pm 12.4 9.8 6.1 65 3.0 NW 9 13 5 7 1014.1 1014.1 0.0
27/05:30pm 13.2 9.9 6.2 62 3.4 NW 13 19 7 10 1014.1 1014.1 0.0
27/05:00pm 13.6 8.8 5.7 59 3.8 WNW 20 30 11 16 1014.0 1014.0 0.0
27/04:30pm 14.0 9.9 6.4 60 3.7 NW 17 24 9 13 1013.9 1013.9 0.0
27/04:00pm 14.3 9.6 6.1 58 4.0 NW 20 28 11 15 1014.0 1014.0 0.0
27/03:30pm 14.1 9.7 6.5 60 3.7 WNW 19 30 10 16 1014.1 1014.1 0.0
27/03:00pm 14.1 8.9 5.3 55 4.2 NW 22 32 12 17 1014.5 1014.4 0.0
27/02:30pm 14.1 9.0 4.2 51 4.6 WNW 20 28 11 15 1014.7 1014.6 0.0
27/02:00pm 14.6 9.9 5.9 56 4.2 WNW 20 30 11 16 1014.9 1014.8 0.0
27/01:30pm 14.4 9.1 4.9 53 4.5 NW 22 32 12 17 1015.1 1015.0 0.0
27/01:00pm 13.8 8.4 4.6 54 4.3 NW 22 32 12 17 1015.4 1015.3 0.0
27/12:30pm 13.8 9.0 5.7 58 3.9 WNW 20 30 11 16 1015.7 1015.6 0.0
27/12:00pm 13.1 8.3 5.5 60 3.6 WNW 20 30 11 16 1015.8 1015.7 0.0
27/11:30am 12.9 7.2 4.8 58 3.8 WNW 24 32 13 17 1016.0 1016.0 0.0
27/11:00am 12.6 7.8 5.4 61 3.4 NW 20 32 11 17 1016.2 1016.2 0.0
27/10:30am 12.8 8.0 5.4 60 3.5 WNW 20 30 11 16 1016.5 1016.5 0.0
27/10:00am 11.1 6.0 4.3 63 3.1 WNW 20 30 11 16 1016.8 1016.8 0.0
27/09:30am 11.4 6.6 5.4 66 2.8 WNW 20 30 11 16 1016.7 1016.7 0.0
27/09:00am 11.1 6.8 7.0 76 2.0 NW 19 24 10 13 1016.6 1016.6 0.0
27/08:30am 10.0 6.1 6.9 81 1.5 NW 17 22 9 12 1016.6 1016.6 0.0
27/08:00am 8.9 6.8 6.8 87 1.0 NNW 7 13 4 7 1016.5 1016.5 0.0
27/07:30am 6.7 4.6 5.6 93 0.5 NNE 6 7 3 4 1016.2 1016.2 0.0
27/07:00am 5.4 3.0 5.2 99 0.1 NE 7 11 4 6 1015.9 1015.9 0.0
27/06:30am 3.3 0.7 3.3 100 0.0 ENE 6 7 3 4 1015.8 1015.7 0.0
27/06:00am 2.5 -0.5 2.2 98 0.1 ENE 7 9 4 5 1015.5 1015.4 0.0
27/05:30am 2.7 0.0 2.5 99 0.1 NE 6 7 3 4 1015.2 1015.1 0.0
27/05:00am 3.3 0.5 3.1 99 0.1 NE 7 9 4 5 1014.8 1014.7 0.0
27/04:30am 3.3 0.7 3.1 99 0.1 NE 6 9 3 5 1014.4 1014.3 0.0
27/04:00am 3.7 0.9 3.2 97 0.2 ENE 7 11 4 6 1014.3 1014.2 0.0
27/03:30am 3.4 0.6 2.9 97 0.2 E 7 9 4 5 1014.3 1014.2 0.0
27/03:00am 4.0 1.3 3.8 99 0.1 ENE 7 9 4 5 1014.0 1014.0 0.0
27/02:30am 3.4 0.6 2.9 97 0.2 NE 7 9 4 5 1014.3 1014.2 0.0
27/02:00am 4.1 1.3 3.4 95 0.3 NE 7 7 4 4 1014.4 1014.3 0.0
27/01:30am 3.9 2.1 3.2 95 0.3 ESE 2 9 1 5 1014.4 1014.3 0.0
27/01:00am 4.3 2.9 3.6 95 0.3 CALM 0 0 0 0 1014.4 1014.3 0.0
27/12:30am 5.4 3.0 4.2 92 0.5 WSW 6 9 3 5 1014.7 1014.6 0.0
27/12:00am 6.4 3.6 5.1 91 0.6 WSW 9 13 5 7 1014.7 1014.6 0.0
 
Date/Time
CST
Temp
°C
App
Temp
°C
Dew
Point
°C
Rel
Hum
%
Delta-T
°C
Wind Press
QNH
hPa
Press
MSL
hPa
Rain since
9am
mm
Dir  Spd
km/h
Gust
km/h
Spd
kts
Gust
kts
26/11:30pm 7.0 3.5 5.4 89 0.7 W 13 17 7 9 1014.8 1014.7 0.0
26/11:00pm 7.1 4.0 5.6 90 0.7 W 11 17 6 9 1014.9 1014.8 0.0
26/10:30pm 7.0 3.9 5.4 89 0.7 W 11 17 6 9 1014.9 1014.8 0.0
26/10:00pm 7.0 3.6 5.7 91 0.6 WSW 13 17 7 9 1014.9 1014.8 0.0
26/09:30pm 7.2 3.7 5.4 88 0.8 W 13 17 7 9 1014.8 1014.7 0.0
26/09:00pm 7.5 4.0 5.5 87 0.9 W 13 19 7 10 1014.7 1014.6 0.0
26/08:30pm 7.9 4.0 5.3 84 1.2 W 15 22 8 12 1014.4 1014.3 0.0
26/08:00pm 8.9 3.5 4.4 73 2.0 WNW 22 32 12 17 1014.3 1014.2 0.0
26/07:30pm 9.1 2.8 3.7 69 2.4 W 26 37 14 20 1013.6 1013.6 0.0
26/07:00pm 9.4 3.5 4.0 69 2.4 W 24 35 13 19 1013.2 1013.2 0.0
26/06:30pm 10.0 4.0 3.2 62 3.0 W 24 37 13 20 1013.1 1013.1 0.0
26/06:00pm 10.7 3.9 3.3 60 3.3 W 28 41 15 22 1012.6 1012.5 0.0

Latest Capital City Observations: Canberra | Sydney | Melbourne | Brisbane | Adelaide | Perth | Hobart | Darwin

Other Formats:

Comma delimited format used in spreadsheet applications
http://www.bom.gov.au/fwo/IDS60901/IDS60901.94681.axf

JavaScript Object Notation format (JSON) in row-major order
http://www.bom.gov.au/fwo/IDS60901/IDS60901.94681.json